sensor_id;sensor_type;location;lat;lon;timestamp;P1;durP1;ratioP1;P2;durP2;ratioP2
23434;SDS011;11890;45.380;11.028;2023-07-31T00:00:17;4.05;;;3.47;;
23434;SDS011;11890;45.380;11.028;2023-07-31T00:02:45;5.25;;;3.30;;
23434;SDS011;11890;45.380;11.028;2023-07-31T00:05:13;4.15;;;3.55;;
23434;SDS011;11890;45.380;11.028;2023-07-31T00:07:41;5.32;;;3.92;;
23434;SDS011;11890;45.380;11.028;2023-07-31T00:10:09;5.68;;;4.07;;
23434;SDS011;11890;45.380;11.028;2023-07-31T00:12:41;5.45;;;4.05;;
23434;SDS011;11890;45.380;11.028;2023-07-31T00:15:09;4.93;;;4.20;;
23434;SDS011;11890;45.380;11.028;2023-07-31T00:17:38;4.40;;;4.00;;
23434;SDS011;11890;45.380;11.028;2023-07-31T00:20:06;4.10;;;3.60;;
23434;SDS011;11890;45.380;11.028;2023-07-31T00:22:35;7.03;;;4.00;;
23434;SDS011;11890;45.380;11.028;2023-07-31T00:25:03;5.50;;;3.70;;
23434;SDS011;11890;45.380;11.028;2023-07-31T00:27:33;3.85;;;3.42;;
23434;SDS011;11890;45.380;11.028;2023-07-31T00:30:01;6.45;;;3.42;;
23434;SDS011;11890;45.380;11.028;2023-07-31T00:32:29;6.03;;;3.60;;
23434;SDS011;11890;45.380;11.028;2023-07-31T00:34:59;5.70;;;3.33;;
23434;SDS011;11890;45.380;11.028;2023-07-31T00:37:29;5.93;;;4.43;;
23434;SDS011;11890;45.380;11.028;2023-07-31T00:39:57;7.45;;;3.92;;
23434;SDS011;11890;45.380;11.028;2023-07-31T00:42:26;5.05;;;4.20;;
23434;SDS011;11890;45.380;11.028;2023-07-31T00:44:54;6.00;;;4.00;;
23434;SDS011;11890;45.380;11.028;2023-07-31T00:47:22;6.43;;;4.28;;
23434;SDS011;11890;45.380;11.028;2023-07-31T00:49:52;4.07;;;3.47;;
23434;SDS011;11890;45.380;11.028;2023-07-31T00:52:20;5.35;;;3.47;;
23434;SDS011;11890;45.380;11.028;2023-07-31T00:54:48;5.25;;;3.78;;
23434;SDS011;11890;45.380;11.028;2023-07-31T00:57:16;6.47;;;3.58;;
23434;SDS011;11890;45.380;11.028;2023-07-31T00:59:44;5.35;;;3.60;;
23434;SDS011;11890;45.380;11.028;2023-07-31T01:02:14;5.35;;;3.35;;
23434;SDS011;11890;45.380;11.028;2023-07-31T01:04:42;4.82;;;3.53;;
23434;SDS011;11890;45.380;11.028;2023-07-31T01:07:18;6.50;;;3.22;;
23434;SDS011;11890;45.380;11.028;2023-07-31T01:12:22;4.05;;;3.20;;
23434;SDS011;11890;45.380;11.028;2023-07-31T01:17:29;4.00;;;3.60;;
23434;SDS011;11890;45.380;11.028;2023-07-31T01:19:59;5.25;;;3.72;;
23434;SDS011;11890;45.380;11.028;2023-07-31T01:25:03;5.18;;;3.60;;
23434;SDS011;11890;45.380;11.028;2023-07-31T01:27:34;5.85;;;3.72;;
23434;SDS011;11890;45.380;11.028;2023-07-31T01:30:11;4.15;;;3.40;;
23434;SDS011;11890;45.380;11.028;2023-07-31T01:32:42;3.78;;;3.40;;
23434;SDS011;11890;45.380;11.028;2023-07-31T01:35:11;5.18;;;4.03;;
23434;SDS011;11890;45.380;11.028;2023-07-31T01:37:38;8.77;;;3.70;;
23434;SDS011;11890;45.380;11.028;2023-07-31T01:40:06;5.43;;;3.70;;
23434;SDS011;11890;45.380;11.028;2023-07-31T01:42:34;4.82;;;3.58;;
23434;SDS011;11890;45.380;11.028;2023-07-31T01:45:03;4.50;;;3.90;;
23434;SDS011;11890;45.380;11.028;2023-07-31T01:47:31;5.20;;;4.53;;
23434;SDS011;11890;45.380;11.028;2023-07-31T01:49:59;6.35;;;5.05;;
23434;SDS011;11890;45.380;11.028;2023-07-31T01:52:27;7.63;;;4.40;;
23434;SDS011;11890;45.380;11.028;2023-07-31T01:54:55;5.05;;;4.05;;
23434;SDS011;11890;45.380;11.028;2023-07-31T01:57:23;5.28;;;4.22;;
23434;SDS011;11890;45.380;11.028;2023-07-31T01:59:51;6.30;;;4.53;;
23434;SDS011;11890;45.380;11.028;2023-07-31T02:02:20;5.18;;;4.00;;
23434;SDS011;11890;45.380;11.028;2023-07-31T02:04:51;5.18;;;4.40;;
23434;SDS011;11890;45.380;11.028;2023-07-31T02:07:19;7.78;;;4.10;;
23434;SDS011;11890;45.380;11.028;2023-07-31T02:09:47;4.60;;;3.90;;
23434;SDS011;11890;45.380;11.028;2023-07-31T02:12:15;4.22;;;3.60;;
23434;SDS011;11890;45.380;11.028;2023-07-31T02:14:43;4.38;;;3.58;;
23434;SDS011;11890;45.380;11.028;2023-07-31T02:17:11;6.05;;;3.88;;
23434;SDS011;11890;45.380;11.028;2023-07-31T02:19:39;5.65;;;4.05;;
23434;SDS011;11890;45.380;11.028;2023-07-31T02:22:07;7.38;;;4.25;;
23434;SDS011;11890;45.380;11.028;2023-07-31T02:24:35;5.22;;;3.60;;
23434;SDS011;11890;45.380;11.028;2023-07-31T02:27:03;5.70;;;4.28;;
23434;SDS011;11890;45.380;11.028;2023-07-31T02:29:31;8.60;;;3.67;;
23434;SDS011;11890;45.380;11.028;2023-07-31T02:31:59;4.93;;;4.00;;
23434;SDS011;11890;45.380;11.028;2023-07-31T02:34:27;4.85;;;3.97;;
23434;SDS011;11890;45.380;11.028;2023-07-31T02:36:55;8.73;;;4.45;;
23434;SDS011;11890;45.380;11.028;2023-07-31T02:39:23;4.70;;;4.20;;
23434;SDS011;11890;45.380;11.028;2023-07-31T02:41:52;8.10;;;4.30;;
23434;SDS011;11890;45.380;11.028;2023-07-31T02:44:20;5.18;;;3.88;;
23434;SDS011;11890;45.380;11.028;2023-07-31T02:46:48;5.43;;;4.30;;
23434;SDS011;11890;45.380;11.028;2023-07-31T02:49:16;7.10;;;4.13;;
23434;SDS011;11890;45.380;11.028;2023-07-31T02:51:44;5.50;;;4.05;;
23434;SDS011;11890;45.380;11.028;2023-07-31T02:54:12;6.55;;;4.43;;
23434;SDS011;11890;45.380;11.028;2023-07-31T02:56:39;5.35;;;3.97;;
23434;SDS011;11890;45.380;11.028;2023-07-31T02:59:08;5.90;;;4.35;;
23434;SDS011;11890;45.380;11.028;2023-07-31T03:01:36;10.35;;;5.05;;
23434;SDS011;11890;45.380;11.028;2023-07-31T03:04:04;5.57;;;4.50;;
23434;SDS011;11890;45.380;11.028;2023-07-31T03:06:32;5.00;;;4.07;;
23434;SDS011;11890;45.380;11.028;2023-07-31T03:09:00;6.90;;;4.20;;
23434;SDS011;11890;45.380;11.028;2023-07-31T03:11:28;6.10;;;4.20;;
23434;SDS011;11890;45.380;11.028;2023-07-31T03:13:56;6.85;;;3.92;;
23434;SDS011;11890;45.380;11.028;2023-07-31T03:16:24;7.35;;;4.43;;
23434;SDS011;11890;45.380;11.028;2023-07-31T03:18:52;5.50;;;4.20;;
23434;SDS011;11890;45.380;11.028;2023-07-31T03:21:20;7.25;;;4.28;;
23434;SDS011;11890;45.380;11.028;2023-07-31T03:23:47;6.22;;;4.50;;
23434;SDS011;11890;45.380;11.028;2023-07-31T03:26:15;6.15;;;4.85;;
23434;SDS011;11890;45.380;11.028;2023-07-31T03:28:43;5.78;;;4.40;;
23434;SDS011;11890;45.380;11.028;2023-07-31T03:31:11;5.18;;;4.32;;
23434;SDS011;11890;45.380;11.028;2023-07-31T03:33:39;4.70;;;4.07;;
23434;SDS011;11890;45.380;11.028;2023-07-31T03:36:07;8.07;;;4.68;;
23434;SDS011;11890;45.380;11.028;2023-07-31T03:38:35;6.90;;;4.28;;
23434;SDS011;11890;45.380;11.028;2023-07-31T03:41:03;4.70;;;4.20;;
23434;SDS011;11890;45.380;11.028;2023-07-31T03:43:33;7.00;;;4.72;;
23434;SDS011;11890;45.380;11.028;2023-07-31T03:46:01;7.80;;;4.90;;
23434;SDS011;11890;45.380;11.028;2023-07-31T03:48:30;6.78;;;4.18;;
23434;SDS011;11890;45.380;11.028;2023-07-31T03:50:58;5.10;;;4.50;;
23434;SDS011;11890;45.380;11.028;2023-07-31T03:53:26;6.53;;;4.65;;
23434;SDS011;11890;45.380;11.028;2023-07-31T03:55:54;6.20;;;4.22;;
23434;SDS011;11890;45.380;11.028;2023-07-31T03:58:22;5.28;;;4.22;;
23434;SDS011;11890;45.380;11.028;2023-07-31T04:00:50;6.45;;;4.43;;
23434;SDS011;11890;45.380;11.028;2023-07-31T04:03:18;6.38;;;4.45;;
23434;SDS011;11890;45.380;11.028;2023-07-31T04:05:46;5.40;;;4.30;;
23434;SDS011;11890;45.380;11.028;2023-07-31T04:08:14;4.95;;;3.90;;
23434;SDS011;11890;45.380;11.028;2023-07-31T04:10:41;8.57;;;4.45;;
23434;SDS011;11890;45.380;11.028;2023-07-31T04:13:09;5.45;;;4.78;;
23434;SDS011;11890;45.380;11.028;2023-07-31T04:15:37;9.32;;;4.45;;
23434;SDS011;11890;45.380;11.028;2023-07-31T04:18:05;6.97;;;4.30;;
23434;SDS011;11890;45.380;11.028;2023-07-31T04:20:33;5.85;;;4.32;;
23434;SDS011;11890;45.380;11.028;2023-07-31T04:23:01;5.38;;;4.75;;
23434;SDS011;11890;45.380;11.028;2023-07-31T04:25:29;6.00;;;3.97;;
23434;SDS011;11890;45.380;11.028;2023-07-31T04:27:58;6.63;;;4.25;;
23434;SDS011;11890;45.380;11.028;2023-07-31T04:30:26;4.85;;;4.10;;
23434;SDS011;11890;45.380;11.028;2023-07-31T04:32:54;8.43;;;4.65;;
23434;SDS011;11890;45.380;11.028;2023-07-31T04:35:22;6.28;;;4.57;;
23434;SDS011;11890;45.380;11.028;2023-07-31T04:37:50;5.95;;;4.40;;
23434;SDS011;11890;45.380;11.028;2023-07-31T04:40:18;9.70;;;4.15;;
23434;SDS011;11890;45.380;11.028;2023-07-31T04:42:46;6.43;;;4.28;;
23434;SDS011;11890;45.380;11.028;2023-07-31T04:45:14;4.75;;;4.22;;
23434;SDS011;11890;45.380;11.028;2023-07-31T04:47:42;7.10;;;4.60;;
23434;SDS011;11890;45.380;11.028;2023-07-31T04:50:10;5.93;;;4.50;;
23434;SDS011;11890;45.380;11.028;2023-07-31T04:52:38;8.90;;;5.13;;
23434;SDS011;11890;45.380;11.028;2023-07-31T04:55:06;5.55;;;4.95;;
23434;SDS011;11890;45.380;11.028;2023-07-31T04:57:34;6.68;;;5.00;;
23434;SDS011;11890;45.380;11.028;2023-07-31T05:00:02;6.90;;;4.85;;
23434;SDS011;11890;45.380;11.028;2023-07-31T05:02:30;15.05;;;5.82;;
23434;SDS011;11890;45.380;11.028;2023-07-31T05:04:58;9.57;;;5.80;;
23434;SDS011;11890;45.380;11.028;2023-07-31T05:07:26;9.60;;;5.95;;
23434;SDS011;11890;45.380;11.028;2023-07-31T05:09:54;8.10;;;5.25;;
23434;SDS011;11890;45.380;11.028;2023-07-31T05:12:24;7.85;;;5.00;;
23434;SDS011;11890;45.380;11.028;2023-07-31T05:14:52;12.50;;;4.82;;
23434;SDS011;11890;45.380;11.028;2023-07-31T05:17:20;7.22;;;4.60;;
23434;SDS011;11890;45.380;11.028;2023-07-31T05:19:48;8.05;;;4.93;;
23434;SDS011;11890;45.380;11.028;2023-07-31T05:22:16;9.93;;;5.28;;
23434;SDS011;11890;45.380;11.028;2023-07-31T05:24:44;11.07;;;4.57;;
23434;SDS011;11890;45.380;11.028;2023-07-31T05:27:12;12.10;;;5.90;;
23434;SDS011;11890;45.380;11.028;2023-07-31T05:29:41;7.93;;;4.80;;
23434;SDS011;11890;45.380;11.028;2023-07-31T05:32:09;8.73;;;4.90;;
23434;SDS011;11890;45.380;11.028;2023-07-31T05:34:37;12.57;;;5.18;;
23434;SDS011;11890;45.380;11.028;2023-07-31T05:37:05;5.95;;;4.50;;
23434;SDS011;11890;45.380;11.028;2023-07-31T05:39:33;6.32;;;4.30;;
23434;SDS011;11890;45.380;11.028;2023-07-31T05:42:01;10.20;;;4.95;;
23434;SDS011;11890;45.380;11.028;2023-07-31T05:44:29;9.63;;;5.50;;
23434;SDS011;11890;45.380;11.028;2023-07-31T05:46:57;9.38;;;5.45;;
23434;SDS011;11890;45.380;11.028;2023-07-31T05:49:25;6.75;;;4.95;;
23434;SDS011;11890;45.380;11.028;2023-07-31T05:51:53;13.30;;;8.10;;
23434;SDS011;11890;45.380;11.028;2023-07-31T05:54:21;9.85;;;5.88;;
23434;SDS011;11890;45.380;11.028;2023-07-31T05:56:49;7.70;;;5.68;;
23434;SDS011;11890;45.380;11.028;2023-07-31T05:59:17;7.13;;;4.65;;
23434;SDS011;11890;45.380;11.028;2023-07-31T06:01:45;8.82;;;5.70;;
23434;SDS011;11890;45.380;11.028;2023-07-31T06:04:13;8.32;;;5.50;;
23434;SDS011;11890;45.380;11.028;2023-07-31T06:06:41;7.38;;;5.55;;
23434;SDS011;11890;45.380;11.028;2023-07-31T06:09:09;6.38;;;5.25;;
23434;SDS011;11890;45.380;11.028;2023-07-31T06:11:38;6.15;;;5.22;;
23434;SDS011;11890;45.380;11.028;2023-07-31T06:14:06;5.80;;;5.18;;
23434;SDS011;11890;45.380;11.028;2023-07-31T06:16:34;6.35;;;5.57;;
23434;SDS011;11890;45.380;11.028;2023-07-31T06:19:03;7.85;;;5.15;;
23434;SDS011;11890;45.380;11.028;2023-07-31T06:21:31;6.72;;;5.30;;
23434;SDS011;11890;45.380;11.028;2023-07-31T06:23:59;7.38;;;5.90;;
23434;SDS011;11890;45.380;11.028;2023-07-31T06:26:27;8.30;;;5.93;;
23434;SDS011;11890;45.380;11.028;2023-07-31T06:28:55;9.00;;;5.78;;
23434;SDS011;11890;45.380;11.028;2023-07-31T06:31:23;6.53;;;5.22;;
23434;SDS011;11890;45.380;11.028;2023-07-31T06:33:58;6.38;;;5.13;;
23434;SDS011;11890;45.380;11.028;2023-07-31T06:36:34;7.75;;;5.70;;
23434;SDS011;11890;45.380;11.028;2023-07-31T06:39:02;7.60;;;4.75;;
23434;SDS011;11890;45.380;11.028;2023-07-31T06:41:30;8.68;;;5.28;;
23434;SDS011;11890;45.380;11.028;2023-07-31T06:43:59;6.50;;;4.80;;
23434;SDS011;11890;45.380;11.028;2023-07-31T06:46:27;6.10;;;4.60;;
23434;SDS011;11890;45.380;11.028;2023-07-31T06:48:55;6.63;;;4.45;;
23434;SDS011;11890;45.380;11.028;2023-07-31T06:51:23;3.80;;;3.40;;
23434;SDS011;11890;45.380;11.028;2023-07-31T06:53:51;7.70;;;4.00;;
23434;SDS011;11890;45.380;11.028;2023-07-31T06:58:48;6.45;;;4.10;;
23434;SDS011;11890;45.380;11.028;2023-07-31T07:01:16;5.82;;;3.78;;
23434;SDS011;11890;45.380;11.028;2023-07-31T07:03:44;4.88;;;3.30;;
23434;SDS011;11890;45.380;11.028;2023-07-31T07:06:12;3.67;;;3.30;;
23434;SDS011;11890;45.380;11.028;2023-07-31T07:08:40;5.93;;;4.28;;
23434;SDS011;11890;45.380;11.028;2023-07-31T07:11:08;6.20;;;4.30;;
23434;SDS011;11890;45.380;11.028;2023-07-31T07:13:35;5.45;;;4.00;;
23434;SDS011;11890;45.380;11.028;2023-07-31T07:16:05;5.55;;;3.50;;
23434;SDS011;11890;45.380;11.028;2023-07-31T07:18:33;5.10;;;3.80;;
23434;SDS011;11890;45.380;11.028;2023-07-31T07:21:05;4.80;;;3.50;;
23434;SDS011;11890;45.380;11.028;2023-07-31T07:23:33;8.40;;;3.92;;
23434;SDS011;11890;45.380;11.028;2023-07-31T07:26:01;7.72;;;3.70;;
23434;SDS011;11890;45.380;11.028;2023-07-31T07:28:29;4.45;;;3.53;;
23434;SDS011;11890;45.380;11.028;2023-07-31T07:30:57;5.55;;;3.88;;
23434;SDS011;11890;45.380;11.028;2023-07-31T07:33:25;6.93;;;3.75;;
23434;SDS011;11890;45.380;11.028;2023-07-31T07:35:53;4.68;;;3.75;;
23434;SDS011;11890;45.380;11.028;2023-07-31T07:38:21;4.63;;;3.65;;
23434;SDS011;11890;45.380;11.028;2023-07-31T07:40:50;6.68;;;3.80;;
23434;SDS011;11890;45.380;11.028;2023-07-31T07:43:20;4.95;;;3.53;;
23434;SDS011;11890;45.380;11.028;2023-07-31T07:45:48;5.05;;;3.40;;
23434;SDS011;11890;45.380;11.028;2023-07-31T07:48:16;4.78;;;3.90;;
23434;SDS011;11890;45.380;11.028;2023-07-31T07:50:44;9.20;;;4.38;;
23434;SDS011;11890;45.380;11.028;2023-07-31T07:53:12;6.68;;;3.63;;
23434;SDS011;11890;45.380;11.028;2023-07-31T07:55:40;5.20;;;3.50;;
23434;SDS011;11890;45.380;11.028;2023-07-31T07:58:08;4.30;;;3.65;;
23434;SDS011;11890;45.380;11.028;2023-07-31T08:00:40;3.80;;;3.05;;
23434;SDS011;11890;45.380;11.028;2023-07-31T08:03:08;6.83;;;3.60;;
23434;SDS011;11890;45.380;11.028;2023-07-31T08:05:37;6.78;;;3.20;;
23434;SDS011;11890;45.380;11.028;2023-07-31T08:08:04;3.47;;;2.42;;
23434;SDS011;11890;45.380;11.028;2023-07-31T08:10:32;4.00;;;2.03;;
23434;SDS011;11890;45.380;11.028;2023-07-31T08:13:00;6.55;;;2.53;;
23434;SDS011;11890;45.380;11.028;2023-07-31T08:15:28;4.70;;;1.95;;
23434;SDS011;11890;45.380;11.028;2023-07-31T08:17:56;3.28;;;1.70;;
23434;SDS011;11890;45.380;11.028;2023-07-31T08:20:24;6.75;;;2.58;;
23434;SDS011;11890;45.380;11.028;2023-07-31T08:22:52;4.05;;;1.88;;
23434;SDS011;11890;45.380;11.028;2023-07-31T08:25:20;3.10;;;2.00;;
23434;SDS011;11890;45.380;11.028;2023-07-31T08:27:48;3.17;;;1.83;;
23434;SDS011;11890;45.380;11.028;2023-07-31T08:30:16;5.05;;;1.88;;
23434;SDS011;11890;45.380;11.028;2023-07-31T08:32:46;5.05;;;1.77;;
23434;SDS011;11890;45.380;11.028;2023-07-31T08:35:14;2.22;;;1.48;;
23434;SDS011;11890;45.380;11.028;2023-07-31T08:37:42;8.05;;;2.75;;
23434;SDS011;11890;45.380;11.028;2023-07-31T08:40:10;2.63;;;1.40;;
23434;SDS011;11890;45.380;11.028;2023-07-31T08:42:49;3.25;;;1.52;;
23434;SDS011;11890;45.380;11.028;2023-07-31T08:45:17;5.28;;;1.65;;
23434;SDS011;11890;45.380;11.028;2023-07-31T08:47:46;2.95;;;1.30;;
23434;SDS011;11890;45.380;11.028;2023-07-31T08:50:15;3.20;;;1.60;;
23434;SDS011;11890;45.380;11.028;2023-07-31T08:52:45;2.38;;;1.50;;
23434;SDS011;11890;45.380;11.028;2023-07-31T08:55:13;3.47;;;1.55;;
23434;SDS011;11890;45.380;11.028;2023-07-31T08:57:41;2.10;;;1.52;;
23434;SDS011;11890;45.380;11.028;2023-07-31T09:00:13;2.97;;;1.40;;
23434;SDS011;11890;45.380;11.028;2023-07-31T09:02:45;4.72;;;1.40;;
23434;SDS011;11890;45.380;11.028;2023-07-31T09:05:14;4.40;;;1.65;;
23434;SDS011;11890;45.380;11.028;2023-07-31T09:07:42;4.35;;;1.35;;
23434;SDS011;11890;45.380;11.028;2023-07-31T09:10:13;3.53;;;1.42;;
23434;SDS011;11890;45.380;11.028;2023-07-31T09:12:41;6.13;;;1.60;;
23434;SDS011;11890;45.380;11.028;2023-07-31T09:15:10;1.80;;;1.48;;
23434;SDS011;11890;45.380;11.028;2023-07-31T09:18:00;2.83;;;1.73;;
23434;SDS011;11890;45.380;11.028;2023-07-31T09:20:28;2.97;;;1.80;;
23434;SDS011;11890;45.380;11.028;2023-07-31T09:22:56;2.78;;;1.35;;
23434;SDS011;11890;45.380;11.028;2023-07-31T09:25:26;4.00;;;1.73;;
23434;SDS011;11890;45.380;11.028;2023-07-31T09:30:30;3.85;;;1.40;;
23434;SDS011;11890;45.380;11.028;2023-07-31T09:33:03;2.42;;;1.40;;
23434;SDS011;11890;45.380;11.028;2023-07-31T09:35:35;3.63;;;1.60;;
23434;SDS011;11890;45.380;11.028;2023-07-31T09:38:10;4.82;;;2.15;;
23434;SDS011;11890;45.380;11.028;2023-07-31T09:40:40;4.35;;;2.17;;
23434;SDS011;11890;45.380;11.028;2023-07-31T09:43:09;2.40;;;1.83;;
23434;SDS011;11890;45.380;11.028;2023-07-31T09:45:38;2.03;;;1.27;;
23434;SDS011;11890;45.380;11.028;2023-07-31T09:50:37;1.90;;;1.27;;
23434;SDS011;11890;45.380;11.028;2023-07-31T09:53:06;2.38;;;1.55;;
23434;SDS011;11890;45.380;11.028;2023-07-31T09:55:34;3.30;;;1.13;;
23434;SDS011;11890;45.380;11.028;2023-07-31T09:58:03;2.63;;;1.70;;
23434;SDS011;11890;45.380;11.028;2023-07-31T10:00:31;2.08;;;1.20;;
23434;SDS011;11890;45.380;11.028;2023-07-31T10:03:00;2.97;;;1.80;;
23434;SDS011;11890;45.380;11.028;2023-07-31T10:05:30;6.10;;;1.98;;
23434;SDS011;11890;45.380;11.028;2023-07-31T10:07:59;3.35;;;1.65;;
23434;SDS011;11890;45.380;11.028;2023-07-31T10:10:27;2.60;;;1.50;;
23434;SDS011;11890;45.380;11.028;2023-07-31T10:12:59;2.90;;;1.60;;
23434;SDS011;11890;45.380;11.028;2023-07-31T10:15:27;2.67;;;1.45;;
23434;SDS011;11890;45.380;11.028;2023-07-31T10:17:56;3.60;;;1.83;;
23434;SDS011;11890;45.380;11.028;2023-07-31T10:20:26;4.38;;;1.88;;
23434;SDS011;11890;45.380;11.028;2023-07-31T10:22:58;4.13;;;1.60;;
23434;SDS011;11890;45.380;11.028;2023-07-31T10:25:26;5.07;;;1.75;;
23434;SDS011;11890;45.380;11.028;2023-07-31T10:27:54;25.00;;;20.27;;
23434;SDS011;11890;45.380;11.028;2023-07-31T10:30:24;4.13;;;2.42;;
23434;SDS011;11890;45.380;11.028;2023-07-31T10:32:53;3.13;;;1.98;;
23434;SDS011;11890;45.380;11.028;2023-07-31T10:35:22;1.63;;;1.30;;
23434;SDS011;11890;45.380;11.028;2023-07-31T10:37:50;2.45;;;1.40;;
23434;SDS011;11890;45.380;11.028;2023-07-31T10:40:18;2.10;;;1.45;;
23434;SDS011;11890;45.380;11.028;2023-07-31T10:42:53;2.33;;;1.52;;
23434;SDS011;11890;45.380;11.028;2023-07-31T10:45:31;2.65;;;1.65;;
23434;SDS011;11890;45.380;11.028;2023-07-31T10:48:00;2.88;;;1.70;;
23434;SDS011;11890;45.380;11.028;2023-07-31T10:50:29;4.88;;;1.73;;
23434;SDS011;11890;45.380;11.028;2023-07-31T10:53:00;4.47;;;1.63;;
23434;SDS011;11890;45.380;11.028;2023-07-31T10:57:57;5.15;;;1.70;;
23434;SDS011;11890;45.380;11.028;2023-07-31T11:00:26;3.33;;;1.70;;
23434;SDS011;11890;45.380;11.028;2023-07-31T11:03:15;2.28;;;1.55;;
23434;SDS011;11890;45.380;11.028;2023-07-31T11:08:28;3.40;;;1.60;;
23434;SDS011;11890;45.380;11.028;2023-07-31T11:13:31;3.17;;;1.20;;
23434;SDS011;11890;45.380;11.028;2023-07-31T11:16:00;2.80;;;1.33;;
23434;SDS011;11890;45.380;11.028;2023-07-31T11:18:28;7.78;;;4.03;;
23434;SDS011;11890;45.380;11.028;2023-07-31T11:20:56;5.43;;;1.95;;
23434;SDS011;11890;45.380;11.028;2023-07-31T11:23:24;3.72;;;1.95;;
23434;SDS011;11890;45.380;11.028;2023-07-31T11:25:52;2.95;;;1.63;;
23434;SDS011;11890;45.380;11.028;2023-07-31T11:28:22;2.63;;;1.38;;
23434;SDS011;11890;45.380;11.028;2023-07-31T11:30:49;2.88;;;1.73;;
23434;SDS011;11890;45.380;11.028;2023-07-31T11:33:18;2.58;;;1.70;;
23434;SDS011;11890;45.380;11.028;2023-07-31T11:35:47;3.65;;;1.70;;
23434;SDS011;11890;45.380;11.028;2023-07-31T11:38:22;2.95;;;1.95;;
23434;SDS011;11890;45.380;11.028;2023-07-31T11:40:51;4.65;;;1.70;;
23434;SDS011;11890;45.380;11.028;2023-07-31T11:43:20;2.53;;;1.17;;
23434;SDS011;11890;45.380;11.028;2023-07-31T11:45:49;5.78;;;1.35;;
23434;SDS011;11890;45.380;11.028;2023-07-31T11:48:21;2.63;;;1.50;;
23434;SDS011;11890;45.380;11.028;2023-07-31T11:50:50;3.30;;;1.58;;
23434;SDS011;11890;45.380;11.028;2023-07-31T11:53:21;3.10;;;1.20;;
23434;SDS011;11890;45.380;11.028;2023-07-31T11:55:50;2.05;;;1.20;;
23434;SDS011;11890;45.380;11.028;2023-07-31T11:58:18;2.58;;;1.40;;
23434;SDS011;11890;45.380;11.028;2023-07-31T12:00:46;3.08;;;1.15;;
23434;SDS011;11890;45.380;11.028;2023-07-31T12:03:15;2.75;;;1.50;;
23434;SDS011;11890;45.380;11.028;2023-07-31T12:05:43;3.47;;;1.25;;
23434;SDS011;11890;45.380;11.028;2023-07-31T12:08:11;2.28;;;1.40;;
23434;SDS011;11890;45.380;11.028;2023-07-31T12:10:40;3.72;;;1.38;;
23434;SDS011;11890;45.380;11.028;2023-07-31T12:13:09;2.00;;;1.02;;
23434;SDS011;11890;45.380;11.028;2023-07-31T12:15:41;4.28;;;1.10;;
23434;SDS011;11890;45.380;11.028;2023-07-31T12:18:10;2.47;;;1.15;;
23434;SDS011;11890;45.380;11.028;2023-07-31T12:23:13;2.38;;;1.35;;
23434;SDS011;11890;45.380;11.028;2023-07-31T12:25:46;1.52;;;1.08;;
23434;SDS011;11890;45.380;11.028;2023-07-31T12:28:15;1.73;;;1.15;;
23434;SDS011;11890;45.380;11.028;2023-07-31T12:30:43;1.77;;;1.20;;
23434;SDS011;11890;45.380;11.028;2023-07-31T12:33:13;2.40;;;1.52;;
23434;SDS011;11890;45.380;11.028;2023-07-31T12:35:44;4.15;;;1.40;;
23434;SDS011;11890;45.380;11.028;2023-07-31T12:38:13;2.50;;;1.60;;
23434;SDS011;11890;45.380;11.028;2023-07-31T12:40:41;2.17;;;1.20;;
23434;SDS011;11890;45.380;11.028;2023-07-31T12:43:09;1.95;;;1.25;;
23434;SDS011;11890;45.380;11.028;2023-07-31T12:45:37;4.03;;;1.95;;
23434;SDS011;11890;45.380;11.028;2023-07-31T12:48:05;2.88;;;1.25;;
23434;SDS011;11890;45.380;11.028;2023-07-31T12:50:33;3.60;;;1.30;;
23434;SDS011;11890;45.380;11.028;2023-07-31T12:53:04;2.45;;;1.33;;
23434;SDS011;11890;45.380;11.028;2023-07-31T12:55:32;2.40;;;1.30;;
23434;SDS011;11890;45.380;11.028;2023-07-31T12:58:01;1.90;;;1.20;;
23434;SDS011;11890;45.380;11.028;2023-07-31T13:00:29;3.00;;;1.30;;
23434;SDS011;11890;45.380;11.028;2023-07-31T13:02:57;2.85;;;1.30;;
23434;SDS011;11890;45.380;11.028;2023-07-31T13:05:26;2.00;;;1.23;;
23434;SDS011;11890;45.380;11.028;2023-07-31T13:07:56;1.88;;;1.05;;
23434;SDS011;11890;45.380;11.028;2023-07-31T13:10:24;1.75;;;0.98;;
23434;SDS011;11890;45.380;11.028;2023-07-31T13:12:54;4.50;;;3.08;;
23434;SDS011;11890;45.380;11.028;2023-07-31T13:15:22;3.42;;;1.50;;
23434;SDS011;11890;45.380;11.028;2023-07-31T13:17:50;3.42;;;1.20;;
23434;SDS011;11890;45.380;11.028;2023-07-31T13:20:20;4.05;;;1.45;;
23434;SDS011;11890;45.380;11.028;2023-07-31T13:22:52;2.00;;;1.30;;
23434;SDS011;11890;45.380;11.028;2023-07-31T13:25:22;1.85;;;1.30;;
23434;SDS011;11890;45.380;11.028;2023-07-31T13:27:53;2.00;;;1.40;;
23434;SDS011;11890;45.380;11.028;2023-07-31T13:30:27;2.40;;;1.30;;
23434;SDS011;11890;45.380;11.028;2023-07-31T13:32:57;4.35;;;1.10;;
23434;SDS011;11890;45.380;11.028;2023-07-31T13:35:25;4.90;;;1.50;;
23434;SDS011;11890;45.380;11.028;2023-07-31T13:37:53;3.00;;;1.30;;
23434;SDS011;11890;45.380;11.028;2023-07-31T13:40:22;2.55;;;1.23;;
23434;SDS011;11890;45.380;11.028;2023-07-31T13:42:50;3.33;;;1.10;;
23434;SDS011;11890;45.380;11.028;2023-07-31T13:45:18;2.67;;;1.50;;
23434;SDS011;11890;45.380;11.028;2023-07-31T13:47:46;3.17;;;1.50;;
23434;SDS011;11890;45.380;11.028;2023-07-31T13:50:14;2.10;;;1.40;;
23434;SDS011;11890;45.380;11.028;2023-07-31T13:52:43;2.92;;;1.70;;
23434;SDS011;11890;45.380;11.028;2023-07-31T13:55:11;3.85;;;1.50;;
23434;SDS011;11890;45.380;11.028;2023-07-31T13:57:39;2.65;;;1.55;;
23434;SDS011;11890;45.380;11.028;2023-07-31T14:00:07;2.83;;;1.05;;
23434;SDS011;11890;45.380;11.028;2023-07-31T14:02:36;3.08;;;1.35;;
23434;SDS011;11890;45.380;11.028;2023-07-31T14:05:04;3.45;;;1.73;;
23434;SDS011;11890;45.380;11.028;2023-07-31T14:07:32;6.28;;;1.65;;
23434;SDS011;11890;45.380;11.028;2023-07-31T14:10:00;2.80;;;1.50;;
23434;SDS011;11890;45.380;11.028;2023-07-31T14:12:28;2.75;;;1.88;;
23434;SDS011;11890;45.380;11.028;2023-07-31T14:15:08;1.83;;;1.45;;
23434;SDS011;11890;45.380;11.028;2023-07-31T14:17:36;2.70;;;1.40;;
23434;SDS011;11890;45.380;11.028;2023-07-31T14:20:05;3.65;;;1.50;;
23434;SDS011;11890;45.380;11.028;2023-07-31T14:22:34;3.22;;;1.30;;
23434;SDS011;11890;45.380;11.028;2023-07-31T14:25:02;1.95;;;1.20;;
23434;SDS011;11890;45.380;11.028;2023-07-31T14:27:30;3.53;;;1.30;;
23434;SDS011;11890;45.380;11.028;2023-07-31T14:29:58;3.08;;;1.48;;
23434;SDS011;11890;45.380;11.028;2023-07-31T14:32:26;1.75;;;1.20;;
23434;SDS011;11890;45.380;11.028;2023-07-31T14:34:54;3.05;;;1.60;;
23434;SDS011;11890;45.380;11.028;2023-07-31T14:37:22;3.13;;;1.63;;
23434;SDS011;11890;45.380;11.028;2023-07-31T14:39:50;2.50;;;1.60;;
23434;SDS011;11890;45.380;11.028;2023-07-31T14:42:18;3.97;;;1.40;;
23434;SDS011;11890;45.380;11.028;2023-07-31T14:44:46;2.47;;;1.63;;
23434;SDS011;11890;45.380;11.028;2023-07-31T14:47:14;2.10;;;1.60;;
23434;SDS011;11890;45.380;11.028;2023-07-31T14:49:42;4.28;;;1.70;;
23434;SDS011;11890;45.380;11.028;2023-07-31T14:52:11;2.25;;;1.40;;
23434;SDS011;11890;45.380;11.028;2023-07-31T14:54:38;2.00;;;1.40;;
23434;SDS011;11890;45.380;11.028;2023-07-31T14:57:06;7.35;;;1.85;;
23434;SDS011;11890;45.380;11.028;2023-07-31T14:59:34;3.63;;;1.65;;
23434;SDS011;11890;45.380;11.028;2023-07-31T15:02:02;2.83;;;1.45;;
23434;SDS011;11890;45.380;11.028;2023-07-31T15:04:31;2.42;;;1.60;;
23434;SDS011;11890;45.380;11.028;2023-07-31T15:06:59;2.63;;;1.50;;